createdAt,value
2018-07-27T00:00:44.405Z,12.00
2018-07-27T00:03:12.634Z,11.70
2018-07-27T00:05:40.857Z,11.10
2018-07-27T00:08:09.081Z,13.30
2018-07-27T00:10:37.304Z,13.60
2018-07-27T00:13:05.543Z,13.53
2018-07-27T00:15:33.758Z,13.27
2018-07-27T00:18:01.963Z,12.83
2018-07-27T00:20:30.186Z,11.53
2018-07-27T00:22:58.454Z,11.37
2018-07-27T00:25:26.738Z,11.57
2018-07-27T00:27:55.009Z,11.43
2018-07-27T00:30:23.257Z,11.23
2018-07-27T00:32:51.453Z,11.70
2018-07-27T00:35:19.661Z,11.33
2018-07-27T00:37:47.864Z,12.67
2018-07-27T00:40:16.061Z,10.83
2018-07-27T00:42:44.262Z,11.50
2018-07-27T00:45:12.462Z,11.50
2018-07-27T00:47:40.722Z,11.47
2018-07-27T00:50:08.949Z,11.70
2018-07-27T00:52:37.218Z,12.33
2018-07-27T00:55:05.426Z,12.37
2018-07-27T00:57:33.618Z,12.90
2018-07-27T01:00:01.834Z,13.50
2018-07-27T01:02:30.022Z,13.20
2018-07-27T01:04:58.218Z,13.87
2018-07-27T01:07:26.434Z,14.00
2018-07-27T01:09:54.946Z,15.63
2018-07-27T01:12:23.146Z,13.77
2018-07-27T01:14:51.358Z,14.63
2018-07-27T01:17:19.557Z,14.90
2018-07-27T01:19:47.776Z,15.07
2018-07-27T01:22:15.969Z,14.47
2018-07-27T01:24:44.194Z,14.30
2018-07-27T01:27:12.374Z,15.60
2018-07-27T01:29:40.573Z,15.20
2018-07-27T01:32:08.786Z,14.60
2018-07-27T01:34:36.984Z,14.57
2018-07-27T01:37:05.290Z,14.93
2018-07-27T01:39:33.503Z,16.37
2018-07-27T01:42:01.734Z,16.03
2018-07-27T01:44:29.950Z,16.70
2018-07-27T01:46:58.174Z,16.20
2018-07-27T01:49:26.384Z,15.90
2018-07-27T01:51:54.562Z,17.13
2018-07-27T01:54:22.775Z,16.57
2018-07-27T01:56:50.969Z,15.57
2018-07-27T01:59:19.178Z,16.03
2018-07-27T02:01:47.373Z,14.97
2018-07-27T02:04:15.594Z,12.73
2018-07-27T02:06:43.785Z,14.10
2018-07-27T02:09:11.978Z,14.57
2018-07-27T02:11:40.178Z,13.60
2018-07-27T02:14:08.369Z,13.50
2018-07-27T02:16:36.565Z,14.17
2018-07-27T02:19:04.794Z,13.63
2018-07-27T02:21:33.022Z,12.63
2018-07-27T02:24:01.239Z,12.70
2018-07-27T02:26:29.437Z,13.33
2018-07-27T02:28:57.638Z,12.97
2018-07-27T02:31:25.854Z,14.00
2018-07-27T02:33:54.095Z,14.60
2018-07-27T02:36:22.260Z,14.30
2018-07-27T02:38:50.458Z,14.30
2018-07-27T02:41:18.655Z,14.60
2018-07-27T02:43:46.868Z,16.20
2018-07-27T02:46:15.949Z,14.50
2018-07-27T02:48:44.194Z,14.70
2018-07-27T02:51:12.389Z,15.57
2018-07-27T02:53:41.386Z,14.20
2018-07-27T02:56:09.608Z,15.10
2018-07-27T02:58:37.816Z,15.07
2018-07-27T03:01:06.330Z,13.73
2018-07-27T03:03:34.538Z,14.00
2018-07-27T03:06:02.751Z,13.43
2018-07-27T03:08:30.965Z,13.67
2018-07-27T03:10:59.200Z,14.33
2018-07-27T03:13:27.415Z,13.70
2018-07-27T03:15:55.621Z,13.93
2018-07-27T03:18:23.821Z,14.17
2018-07-27T03:20:52.063Z,14.63
2018-07-27T03:23:20.261Z,14.43
2018-07-27T03:25:48.470Z,15.30
2018-07-27T03:28:16.689Z,15.00
2018-07-27T03:30:44.895Z,16.60
2018-07-27T03:33:13.108Z,15.30
2018-07-27T03:35:41.310Z,18.13
2018-07-27T03:38:09.544Z,18.70
2018-07-27T03:40:37.718Z,18.17
2018-07-27T03:43:05.957Z,20.37
2018-07-27T03:45:34.234Z,19.93
2018-07-27T03:48:06.591Z,18.80
2018-07-27T03:50:34.801Z,18.40
2018-07-27T03:53:03.126Z,17.33
2018-07-27T03:55:31.379Z,19.20
2018-07-27T03:57:59.623Z,17.27
2018-07-27T04:00:27.830Z,15.73
2018-07-27T04:02:56.102Z,16.27
2018-07-27T04:05:24.297Z,16.17
2018-07-27T04:07:52.482Z,16.80
2018-07-27T04:10:20.882Z,15.13
2018-07-27T04:12:49.074Z,15.63
2018-07-27T04:15:17.294Z,17.30
2018-07-27T04:17:50.664Z,16.30
2018-07-27T04:20:18.866Z,14.97
2018-07-27T04:22:47.178Z,16.67
2018-07-27T04:25:15.378Z,16.10
2018-07-27T04:27:43.600Z,16.77
2018-07-27T04:30:11.819Z,14.00
2018-07-27T04:32:40.038Z,13.80
2018-07-27T04:35:08.241Z,13.87
2018-07-27T04:37:36.447Z,14.77
2018-07-27T04:40:04.678Z,15.17
2018-07-27T04:42:32.874Z,14.23
2018-07-27T04:45:01.087Z,16.20
2018-07-27T04:47:29.285Z,16.40
2018-07-27T04:49:57.522Z,15.77
2018-07-27T04:52:25.845Z,15.60
2018-07-27T04:54:54.048Z,15.13
2018-07-27T04:57:22.306Z,14.80
2018-07-27T04:59:50.502Z,14.40
2018-07-27T05:02:18.697Z,15.20
2018-07-27T05:04:46.978Z,14.53
2018-07-27T05:07:15.120Z,15.70
2018-07-27T05:09:43.330Z,14.87
2018-07-27T05:12:11.533Z,15.20
2018-07-27T05:14:39.737Z,15.07
2018-07-27T05:17:07.939Z,14.80
2018-07-27T05:19:36.138Z,15.97
2018-07-27T05:22:04.359Z,15.50
2018-07-27T05:24:32.608Z,16.40
2018-07-27T05:27:00.770Z,16.07
2018-07-27T05:29:28.978Z,16.53
2018-07-27T05:31:57.198Z,16.90
2018-07-27T05:34:25.513Z,15.90
2018-07-27T05:36:52.681Z,15.07
2018-07-27T05:39:20.894Z,15.40
2018-07-27T05:41:49.099Z,16.70
2018-07-27T05:44:17.319Z,16.27
2018-07-27T05:46:45.625Z,15.50
2018-07-27T05:49:13.790Z,16.90
2018-07-27T05:51:42.290Z,16.97
2018-07-27T05:54:10.534Z,17.03
2018-07-27T05:56:38.734Z,16.90
2018-07-27T05:59:06.974Z,16.17
2018-07-27T06:01:35.194Z,15.20
2018-07-27T06:04:03.431Z,16.20
2018-07-27T06:06:31.659Z,15.40
2018-07-27T06:08:59.898Z,14.97
2018-07-27T06:11:28.150Z,14.67
2018-07-27T06:13:56.366Z,14.70
2018-07-27T06:16:24.578Z,14.93
2018-07-27T06:18:52.801Z,14.20
2018-07-27T06:21:20.998Z,15.97
2018-07-27T06:23:49.265Z,16.27
2018-07-27T06:26:17.494Z,15.60
2018-07-27T06:28:45.702Z,15.00
2018-07-27T06:31:13.918Z,14.53
2018-07-27T06:33:42.118Z,15.07
2018-07-27T06:36:10.350Z,14.53
2018-07-27T06:38:38.553Z,15.50
2018-07-27T06:41:06.881Z,16.00
2018-07-27T06:43:35.102Z,14.90
2018-07-27T06:46:03.355Z,14.03
2018-07-27T06:48:31.558Z,14.33
2018-07-27T06:50:59.774Z,14.90
2018-07-27T06:53:27.981Z,14.83
2018-07-27T06:55:56.191Z,15.27
2018-07-27T06:58:24.455Z,14.80
2018-07-27T07:00:52.710Z,15.40
2018-07-27T07:03:20.967Z,15.87
2018-07-27T07:05:49.541Z,15.03
2018-07-27T07:08:17.741Z,15.17
2018-07-27T07:10:45.962Z,15.00
2018-07-27T07:13:14.178Z,15.47
2018-07-27T07:15:42.390Z,14.70
2018-07-27T07:18:10.589Z,15.17
2018-07-27T07:20:38.825Z,16.40
2018-07-27T07:23:07.030Z,13.83
2018-07-27T07:25:35.379Z,15.07
2018-07-27T07:28:03.470Z,15.17
2018-07-27T07:30:31.684Z,14.50
2018-07-27T07:32:59.904Z,15.00
2018-07-27T07:35:28.116Z,15.50
2018-07-27T07:37:56.598Z,15.30
2018-07-27T07:40:24.816Z,15.23
2018-07-27T07:42:53.042Z,13.77
2018-07-27T07:45:21.249Z,13.80
2018-07-27T07:47:49.443Z,13.53
2018-07-27T07:50:17.653Z,13.87
2018-07-27T07:52:45.862Z,13.70
2018-07-27T07:55:14.061Z,14.97
2018-07-27T07:57:42.275Z,13.70
2018-07-27T08:00:10.514Z,13.60
2018-07-27T08:02:38.717Z,13.20
2018-07-27T08:05:07.086Z,13.43
2018-07-27T08:07:37.614Z,11.60
2018-07-27T08:10:06.125Z,12.40
2018-07-27T08:12:34.490Z,11.70
2018-07-27T08:15:02.750Z,11.10
2018-07-27T08:17:31.066Z,11.87
2018-07-27T08:19:59.289Z,10.80
2018-07-27T08:22:27.517Z,10.70
2018-07-27T08:24:55.733Z,11.10
2018-07-27T08:27:23.962Z,11.27
2018-07-27T08:29:52.162Z,10.50
2018-07-27T08:32:20.482Z,11.10
2018-07-27T08:34:48.762Z,10.87
2018-07-27T08:37:17.073Z,11.30
2018-07-27T08:39:45.379Z,10.23
2018-07-27T08:42:13.577Z,9.90
2018-07-27T08:44:42.694Z,9.67
2018-07-27T08:47:10.939Z,10.03
2018-07-27T08:49:39.177Z,10.33
2018-07-27T08:52:07.385Z,10.03
2018-07-27T08:54:35.583Z,10.23
2018-07-27T08:57:03.850Z,10.40
2018-07-27T08:59:32.111Z,10.57
2018-07-27T09:02:00.362Z,8.53
2018-07-27T09:04:28.613Z,9.83
2018-07-27T09:06:56.814Z,10.10
2018-07-27T09:09:25.058Z,10.03
2018-07-27T09:11:53.292Z,9.50
2018-07-27T09:14:21.834Z,9.13
2018-07-27T09:16:50.130Z,9.33
2018-07-27T09:19:18.898Z,9.70
2018-07-27T09:21:47.114Z,10.90
2018-07-27T09:24:15.439Z,10.60
2018-07-27T09:26:43.540Z,11.27
2018-07-27T09:29:11.745Z,11.40
2018-07-27T09:31:39.982Z,11.20
2018-07-27T09:34:08.274Z,10.80
2018-07-27T09:36:36.464Z,12.53
2018-07-27T09:39:07.866Z,11.97
2018-07-27T09:41:36.146Z,12.00
2018-07-27T09:44:04.399Z,11.83
2018-07-27T09:46:32.642Z,11.60
2018-07-27T09:49:00.801Z,10.70
2018-07-27T09:51:29.052Z,12.20
2018-07-27T09:53:57.320Z,11.67
2018-07-27T09:56:25.541Z,12.07
2018-07-27T09:58:53.782Z,12.43
2018-07-27T10:01:22.729Z,11.63
2018-07-27T10:03:51.474Z,11.77
2018-07-27T10:06:19.679Z,11.70
2018-07-27T10:08:47.938Z,11.27
2018-07-27T10:11:16.138Z,10.47
2018-07-27T10:13:44.386Z,10.90
2018-07-27T10:16:12.609Z,11.10
2018-07-27T10:18:40.813Z,11.10
2018-07-27T10:21:09.314Z,11.37
2018-07-27T10:23:37.611Z,12.13
2018-07-27T10:26:05.992Z,10.93
2018-07-27T10:28:34.183Z,12.00
2018-07-27T10:31:02.452Z,11.03
2018-07-27T10:33:30.702Z,11.53
2018-07-27T10:35:58.905Z,11.90
2018-07-27T10:38:27.110Z,11.23
2018-07-27T10:40:55.301Z,10.20
2018-07-27T10:43:23.494Z,11.50
2018-07-27T10:45:51.706Z,11.43
2018-07-27T10:48:19.975Z,11.60
2018-07-27T10:50:48.209Z,10.63
2018-07-27T10:53:16.470Z,11.80
2018-07-27T10:55:44.667Z,11.47
2018-07-27T10:58:12.891Z,11.30
2018-07-27T11:00:41.093Z,10.57
2018-07-27T11:03:09.319Z,11.00
2018-07-27T11:05:37.514Z,11.57
2018-07-27T11:08:05.702Z,12.33
2018-07-27T11:10:34.713Z,11.60
2018-07-27T11:13:02.901Z,11.40
2018-07-27T11:15:31.123Z,11.57
2018-07-27T11:17:59.330Z,11.97
2018-07-27T11:20:27.533Z,11.30
2018-07-27T11:22:55.761Z,11.17
2018-07-27T11:25:23.989Z,11.77
2018-07-27T11:27:52.246Z,11.53
2018-07-27T11:30:20.482Z,10.73
2018-07-27T11:32:48.689Z,11.40
2018-07-27T11:35:16.956Z,11.60
2018-07-27T11:37:45.175Z,10.50
2018-07-27T11:40:13.499Z,10.87
2018-07-27T11:42:41.719Z,11.53
2018-07-27T11:45:09.912Z,11.27
2018-07-27T11:47:38.131Z,10.73
2018-07-27T11:50:06.662Z,12.73
2018-07-27T11:52:34.910Z,11.60
2018-07-27T11:55:03.138Z,12.10
2018-07-27T11:57:31.334Z,11.37
2018-07-27T11:59:59.549Z,12.20
2018-07-27T12:02:27.802Z,10.30
2018-07-27T12:04:56.022Z,12.20
2018-07-27T12:07:24.223Z,11.33
2018-07-27T12:09:52.463Z,11.37
2018-07-27T12:12:20.674Z,11.00
2018-07-27T12:14:49.044Z,11.60
2018-07-27T12:17:17.197Z,11.70
2018-07-27T12:19:45.398Z,11.20
2018-07-27T12:22:13.603Z,11.90
2018-07-27T12:24:41.806Z,11.60
2018-07-27T12:27:10.188Z,11.73
2018-07-27T12:29:38.355Z,11.53
2018-07-27T12:32:06.579Z,11.83
2018-07-27T12:34:34.801Z,11.63
2018-07-27T12:37:03.002Z,11.00
2018-07-27T12:39:31.198Z,11.27
2018-07-27T12:41:59.406Z,11.13
2018-07-27T12:44:27.613Z,11.57
2018-07-27T12:46:55.814Z,11.37
2018-07-27T12:49:24.025Z,11.00
2018-07-27T12:52:23.182Z,12.10
2018-07-27T12:54:51.395Z,11.90
2018-07-27T12:57:20.634Z,11.53
2018-07-27T12:59:48.839Z,12.10
2018-07-27T13:02:17.045Z,11.67
2018-07-27T13:04:45.266Z,11.97
2018-07-27T13:07:13.477Z,12.70
2018-07-27T13:09:41.711Z,12.70
2018-07-27T13:12:09.946Z,11.97
2018-07-27T13:14:38.135Z,11.07
2018-07-27T13:17:06.338Z,12.33
2018-07-27T13:19:34.542Z,11.90
2018-07-27T13:22:02.737Z,12.50
2018-07-27T13:24:56.842Z,12.17
2018-07-27T13:26:59.150Z,11.67
2018-07-27T13:29:27.417Z,12.00
2018-07-27T13:31:56.767Z,13.73
2018-07-27T13:34:35.230Z,12.57
2018-07-27T13:37:03.466Z,12.90
2018-07-27T13:39:32.217Z,12.77
2018-07-27T13:42:01.491Z,11.77
2018-07-27T13:44:30.397Z,11.43
2018-07-27T13:46:58.595Z,12.27
2018-07-27T13:49:27.490Z,11.70
2018-07-27T13:51:55.790Z,11.63
2018-07-27T13:54:23.995Z,11.90
2018-07-27T13:56:52.205Z,12.37
2018-07-27T13:59:20.394Z,12.63
2018-07-27T14:01:49.550Z,11.63
2018-07-27T14:04:17.958Z,12.37
2018-07-27T14:06:47.953Z,10.97
2018-07-27T14:09:16.174Z,11.80
2018-07-27T14:11:44.446Z,11.60
2018-07-27T14:14:12.957Z,11.63
2018-07-27T14:16:41.721Z,11.63
2018-07-27T14:19:10.122Z,12.97
2018-07-27T14:21:38.394Z,11.97
2018-07-27T14:24:06.534Z,11.30
2018-07-27T14:26:34.746Z,11.80
2018-07-27T14:29:02.938Z,11.87
2018-07-27T14:31:31.135Z,11.50
2018-07-27T14:33:59.338Z,11.27
2018-07-27T14:36:27.590Z,12.70
2018-07-27T14:38:55.819Z,11.90
2018-07-27T14:41:24.150Z,11.63
2018-07-27T14:43:52.699Z,11.17
2018-07-27T14:46:20.956Z,12.13
2018-07-27T14:48:49.162Z,12.07
2018-07-27T14:51:17.580Z,12.20
2018-07-27T14:53:46.234Z,11.90
2018-07-27T14:56:14.462Z,11.80
2018-07-27T14:58:43.710Z,11.87
2018-07-27T15:01:11.858Z,11.90
2018-07-27T15:03:40.058Z,11.20
2018-07-27T15:06:08.258Z,12.10
2018-07-27T15:08:36.466Z,10.80
2018-07-27T15:11:04.681Z,12.67
2018-07-27T15:13:32.862Z,12.70
2018-07-27T15:16:01.062Z,11.90
2018-07-27T15:18:29.257Z,10.60
2018-07-27T15:20:57.486Z,12.80
2018-07-27T15:23:25.690Z,11.93
2018-07-27T15:25:53.886Z,11.90
2018-07-27T15:28:22.090Z,11.70
2018-07-27T15:30:50.319Z,12.03
2018-07-27T15:33:18.562Z,12.03
2018-07-27T15:35:46.774Z,11.60
2018-07-27T15:38:14.970Z,11.93
2018-07-27T15:40:43.229Z,12.10
2018-07-27T15:43:11.424Z,11.60
2018-07-27T15:45:39.641Z,11.07
2018-07-27T15:48:07.907Z,12.67
2018-07-27T15:50:36.145Z,12.00
2018-07-27T15:53:04.381Z,12.23
2018-07-27T15:55:32.756Z,11.27
2018-07-27T15:58:00.942Z,12.07
2018-07-27T16:00:29.161Z,12.80
2018-07-27T16:02:57.387Z,11.30
2018-07-27T16:05:25.600Z,11.40
2018-07-27T16:07:53.806Z,12.13
2018-07-27T16:10:22.006Z,10.80
2018-07-27T16:12:50.222Z,11.27
2018-07-27T16:15:18.446Z,11.03
2018-07-27T16:17:46.646Z,11.50
2018-07-27T16:20:14.847Z,10.93
2018-07-27T16:22:43.050Z,10.60
2018-07-27T16:25:11.265Z,11.20
2018-07-27T16:27:39.502Z,10.33
2018-07-27T16:30:07.740Z,10.90
2018-07-27T16:32:35.934Z,10.50
2018-07-27T16:35:04.133Z,10.97
2018-07-27T16:37:32.336Z,10.50
2018-07-27T16:40:00.541Z,11.70
2018-07-27T16:42:28.812Z,10.73
2018-07-27T16:44:57.005Z,10.93
2018-07-27T16:47:25.237Z,10.13
2018-07-27T16:49:53.429Z,11.30
2018-07-27T16:52:21.626Z,10.23
2018-07-27T16:54:49.861Z,11.40
2018-07-27T16:57:18.053Z,10.33
2018-07-27T16:59:46.311Z,11.40
2018-07-27T17:02:14.462Z,11.17
2018-07-27T17:04:42.653Z,11.13
2018-07-27T17:07:10.854Z,10.70
2018-07-27T17:09:39.041Z,10.93
2018-07-27T17:12:07.332Z,11.07
2018-07-27T17:14:35.526Z,10.80
2018-07-27T17:17:03.774Z,11.93
2018-07-27T17:19:31.978Z,11.93
2018-07-27T17:22:00.235Z,11.90
2018-07-27T17:24:28.606Z,11.60
2018-07-27T17:26:56.802Z,11.20
2018-07-27T17:29:25.016Z,12.30
2018-07-27T17:31:53.217Z,11.57
2018-07-27T17:34:21.444Z,10.80
2018-07-27T17:36:49.640Z,12.00
2018-07-27T17:39:17.843Z,10.57
2018-07-27T17:41:46.033Z,12.10
2018-07-27T17:44:14.258Z,10.87
2018-07-27T17:46:42.446Z,9.93
2018-07-27T17:49:10.662Z,10.20
2018-07-27T17:51:39.170Z,11.30
2018-07-27T17:54:08.286Z,11.17
2018-07-27T17:56:36.478Z,11.60
2018-07-27T17:59:05.026Z,10.60
2018-07-27T18:01:33.249Z,11.20
2018-07-27T18:04:01.422Z,10.57
2018-07-27T18:06:29.626Z,12.10
2018-07-27T18:08:57.833Z,10.30
2018-07-27T18:11:26.035Z,9.90
2018-07-27T18:13:54.235Z,9.83
2018-07-27T18:16:22.422Z,10.50
2018-07-27T18:18:50.606Z,10.20
2018-07-27T18:21:18.802Z,10.33
2018-07-27T18:23:47.000Z,10.87
2018-07-27T18:26:15.205Z,12.00
2018-07-27T18:28:43.397Z,11.50
2018-07-27T18:31:11.594Z,10.40
2018-07-27T18:33:39.809Z,9.93
2018-07-27T18:36:08.265Z,10.00
2018-07-27T18:38:36.482Z,10.33
2018-07-27T18:41:04.686Z,11.07
2018-07-27T18:43:32.869Z,12.83
2018-07-27T18:46:01.080Z,11.23
2018-07-27T18:48:29.286Z,12.10
2018-07-27T18:50:57.531Z,10.83
2018-07-27T18:53:25.737Z,10.60
2018-07-27T18:55:53.933Z,11.93
2018-07-27T18:58:22.138Z,10.93
2018-07-27T19:00:50.338Z,11.10
2018-07-27T19:03:18.549Z,11.30
2018-07-27T19:05:46.729Z,11.50
2018-07-27T19:08:15.034Z,11.60
2018-07-27T19:10:43.234Z,11.70
2018-07-27T19:13:11.430Z,12.30
2018-07-27T19:15:39.626Z,10.60
2018-07-27T19:18:07.818Z,12.17
2018-07-27T19:20:36.037Z,12.57
2018-07-27T19:23:04.238Z,13.70
2018-07-27T19:25:32.418Z,12.60
2018-07-27T19:28:00.625Z,12.80
2018-07-27T19:30:28.850Z,11.93
2018-07-27T19:32:57.050Z,11.97
2018-07-27T19:35:25.254Z,11.90
2018-07-27T19:37:53.442Z,13.17
2018-07-27T19:40:21.692Z,12.20
2018-07-27T19:42:49.870Z,12.00
2018-07-27T19:45:18.103Z,12.60
2018-07-27T19:47:46.346Z,13.40
2018-07-27T19:50:14.531Z,14.70
2018-07-27T19:52:42.738Z,13.00
2018-07-27T19:55:11.009Z,12.70
2018-07-27T19:57:39.214Z,11.87
2018-07-27T20:00:08.054Z,13.07
2018-07-27T20:02:36.242Z,13.80
2018-07-27T20:05:04.519Z,13.53
2018-07-27T20:07:32.754Z,12.50
2018-07-27T20:10:01.014Z,13.07
2018-07-27T20:12:29.239Z,13.80
2018-07-27T20:14:57.438Z,13.53
2018-07-27T20:17:25.687Z,14.17
2018-07-27T20:19:53.886Z,13.00
2018-07-27T20:22:22.099Z,13.20
2018-07-27T20:24:50.314Z,13.57
2018-07-27T20:27:18.501Z,13.13
2018-07-27T20:29:46.738Z,13.50
2018-07-27T20:32:15.042Z,13.10
2018-07-27T20:34:43.254Z,13.13
2018-07-27T20:37:11.478Z,13.73
2018-07-27T20:39:39.678Z,14.20
2018-07-27T20:42:07.967Z,13.30
2018-07-27T20:44:36.158Z,14.43
2018-07-27T20:47:04.390Z,14.90
2018-07-27T20:49:36.255Z,14.90
2018-07-27T20:52:04.478Z,13.33
2018-07-27T20:54:32.720Z,13.67
2018-07-27T20:57:00.950Z,13.53
2018-07-27T20:59:29.139Z,13.80
2018-07-27T21:01:57.382Z,14.30
2018-07-27T21:04:25.641Z,14.30
2018-07-27T21:06:53.870Z,14.97
2018-07-27T21:09:22.083Z,13.90
2018-07-27T21:11:50.289Z,14.00
2018-07-27T21:14:18.522Z,15.17
2018-07-27T21:16:46.718Z,14.20
2018-07-27T21:19:14.946Z,13.87
2018-07-27T21:21:43.224Z,13.23
2018-07-27T21:24:11.358Z,13.43
2018-07-27T21:26:39.602Z,14.37
2018-07-27T21:29:07.802Z,13.50
2018-07-27T21:31:36.026Z,14.33
2018-07-27T21:34:04.225Z,14.80
2018-07-27T21:36:32.567Z,14.03
2018-07-27T21:39:00.733Z,13.67
2018-07-27T21:41:28.937Z,12.73
2018-07-27T21:43:57.886Z,13.17
2018-07-27T21:46:26.079Z,12.27
2018-07-27T21:48:54.530Z,13.00
2018-07-27T21:51:22.742Z,13.27
2018-07-27T21:53:51.038Z,12.97
2018-07-27T21:56:19.258Z,12.83
2018-07-27T21:58:47.490Z,13.37
2018-07-27T22:01:15.934Z,13.40
2018-07-27T22:03:44.171Z,13.23
2018-07-27T22:06:12.401Z,13.73
2018-07-27T22:08:40.649Z,14.07
2018-07-27T22:11:08.915Z,13.40
2018-07-27T22:13:37.142Z,14.20
2018-07-27T22:16:05.350Z,14.67
2018-07-27T22:18:33.551Z,14.07
2018-07-27T22:21:01.798Z,14.90
2018-07-27T22:23:30.007Z,16.53
2018-07-27T22:25:58.210Z,16.00
2018-07-27T22:28:26.413Z,17.33
2018-07-27T22:30:54.670Z,17.67
2018-07-27T22:33:22.886Z,18.70
2018-07-27T22:35:51.082Z,17.20
2018-07-27T22:38:19.301Z,16.73
2018-07-27T22:40:47.540Z,17.50
2018-07-27T22:43:15.739Z,17.80
2018-07-27T22:45:43.954Z,16.73
2018-07-27T22:48:12.193Z,16.90
2018-07-27T22:50:40.430Z,16.80
2018-07-27T22:53:08.646Z,15.70
2018-07-27T22:55:36.846Z,16.80
2018-07-27T22:58:05.411Z,17.10
2018-07-27T23:00:33.622Z,17.97
2018-07-27T23:03:01.856Z,16.77
2018-07-27T23:05:30.086Z,17.83
2018-07-27T23:07:58.351Z,16.17
2018-07-27T23:10:26.586Z,17.23
2018-07-27T23:12:54.798Z,17.60
2018-07-27T23:15:23.037Z,17.53
2018-07-27T23:17:51.238Z,17.27
2018-07-27T23:20:19.445Z,18.13
2018-07-27T23:22:47.642Z,18.03
2018-07-27T23:25:15.857Z,17.53
2018-07-27T23:27:44.073Z,16.70
2018-07-27T23:30:13.270Z,16.00
2018-07-27T23:32:41.822Z,16.50
2018-07-27T23:35:10.026Z,15.77
2018-07-27T23:37:38.367Z,15.20
2018-07-27T23:40:07.197Z,16.33
2018-07-27T23:42:35.414Z,14.67
2018-07-27T23:45:03.666Z,16.07
2018-07-27T23:47:31.877Z,16.40
2018-07-27T23:50:00.075Z,15.43
2018-07-27T23:52:28.306Z,15.23
2018-07-27T23:54:56.522Z,15.60
2018-07-27T23:57:24.754Z,15.80
2018-07-27T23:59:52.969Z,14.53
